sensor_id;sensor_type;location;lat;lon;timestamp;P1;durP1;ratioP1;P2;durP2;ratioP2
10467;SDS011;5281;48.878;9.394;2022-12-20T00:01:16;13.00;;;8.83;;
10467;SDS011;5281;48.878;9.394;2022-12-20T00:03:45;13.77;;;9.87;;
10467;SDS011;5281;48.878;9.394;2022-12-20T00:06:14;15.33;;;9.80;;
10467;SDS011;5281;48.878;9.394;2022-12-20T00:08:40;13.73;;;9.70;;
10467;SDS011;5281;48.878;9.394;2022-12-20T00:11:09;14.00;;;9.77;;
10467;SDS011;5281;48.878;9.394;2022-12-20T00:13:36;16.53;;;9.70;;
10467;SDS011;5281;48.878;9.394;2022-12-20T00:16:04;13.53;;;9.87;;
10467;SDS011;5281;48.878;9.394;2022-12-20T00:18:32;13.77;;;9.17;;
10467;SDS011;5281;48.878;9.394;2022-12-20T00:20:59;15.70;;;9.80;;
10467;SDS011;5281;48.878;9.394;2022-12-20T00:23:27;15.20;;;9.67;;
10467;SDS011;5281;48.878;9.394;2022-12-20T00:25:58;14.63;;;9.80;;
10467;SDS011;5281;48.878;9.394;2022-12-20T00:28:27;13.40;;;9.70;;
10467;SDS011;5281;48.878;9.394;2022-12-20T00:30:54;12.80;;;9.37;;
10467;SDS011;5281;48.878;9.394;2022-12-20T00:33:21;14.93;;;9.50;;
10467;SDS011;5281;48.878;9.394;2022-12-20T00:35:48;14.10;;;9.23;;
10467;SDS011;5281;48.878;9.394;2022-12-20T00:38:15;13.67;;;9.70;;
10467;SDS011;5281;48.878;9.394;2022-12-20T00:40:42;11.87;;;8.83;;
10467;SDS011;5281;48.878;9.394;2022-12-20T00:43:08;12.10;;;9.13;;
10467;SDS011;5281;48.878;9.394;2022-12-20T00:45:36;14.30;;;9.37;;
10467;SDS011;5281;48.878;9.394;2022-12-20T00:48:03;14.43;;;10.17;;
10467;SDS011;5281;48.878;9.394;2022-12-20T00:50:31;13.37;;;9.03;;
10467;SDS011;5281;48.878;9.394;2022-12-20T00:52:57;15.10;;;9.70;;
10467;SDS011;5281;48.878;9.394;2022-12-20T00:55:24;14.47;;;9.77;;
10467;SDS011;5281;48.878;9.394;2022-12-20T00:57:51;16.57;;;10.67;;
10467;SDS011;5281;48.878;9.394;2022-12-20T01:00:18;13.17;;;8.90;;
10467;SDS011;5281;48.878;9.394;2022-12-20T01:02:46;16.47;;;9.77;;
10467;SDS011;5281;48.878;9.394;2022-12-20T01:05:13;14.63;;;9.73;;
10467;SDS011;5281;48.878;9.394;2022-12-20T01:07:40;14.47;;;9.70;;
10467;SDS011;5281;48.878;9.394;2022-12-20T01:10:07;13.97;;;9.67;;
10467;SDS011;5281;48.878;9.394;2022-12-20T01:12:35;15.13;;;9.40;;
10467;SDS011;5281;48.878;9.394;2022-12-20T01:15:01;14.83;;;9.33;;
10467;SDS011;5281;48.878;9.394;2022-12-20T01:17:29;14.57;;;9.87;;
10467;SDS011;5281;48.878;9.394;2022-12-20T01:19:57;14.60;;;8.97;;
10467;SDS011;5281;48.878;9.394;2022-12-20T01:22:24;14.23;;;9.90;;
10467;SDS011;5281;48.878;9.394;2022-12-20T01:24:50;13.37;;;9.40;;
10467;SDS011;5281;48.878;9.394;2022-12-20T01:27:17;14.60;;;9.23;;
10467;SDS011;5281;48.878;9.394;2022-12-20T01:29:44;13.13;;;9.47;;
10467;SDS011;5281;48.878;9.394;2022-12-20T01:32:10;14.63;;;9.30;;
10467;SDS011;5281;48.878;9.394;2022-12-20T01:34:37;15.13;;;9.63;;
10467;SDS011;5281;48.878;9.394;2022-12-20T01:37:05;14.80;;;9.90;;
10467;SDS011;5281;48.878;9.394;2022-12-20T01:39:32;13.87;;;9.60;;
10467;SDS011;5281;48.878;9.394;2022-12-20T01:41:59;14.23;;;9.90;;
10467;SDS011;5281;48.878;9.394;2022-12-20T01:47:22;15.47;;;10.30;;
10467;SDS011;5281;48.878;9.394;2022-12-20T01:49:51;13.77;;;9.07;;
10467;SDS011;5281;48.878;9.394;2022-12-20T01:52:23;16.90;;;9.20;;
10467;SDS011;5281;48.878;9.394;2022-12-20T01:54:55;15.30;;;9.27;;
10467;SDS011;5281;48.878;9.394;2022-12-20T01:57:28;14.23;;;9.57;;
10467;SDS011;5281;48.878;9.394;2022-12-20T02:00:00;14.23;;;9.63;;
10467;SDS011;5281;48.878;9.394;2022-12-20T02:02:26;14.43;;;9.70;;
10467;SDS011;5281;48.878;9.394;2022-12-20T02:04:53;13.33;;;9.67;;
10467;SDS011;5281;48.878;9.394;2022-12-20T02:07:20;13.27;;;9.40;;
10467;SDS011;5281;48.878;9.394;2022-12-20T02:09:52;12.07;;;9.20;;
10467;SDS011;5281;48.878;9.394;2022-12-20T02:12:21;14.53;;;9.60;;
10467;SDS011;5281;48.878;9.394;2022-12-20T02:14:54;14.30;;;9.47;;
10467;SDS011;5281;48.878;9.394;2022-12-20T02:17:34;17.37;;;9.60;;
10467;SDS011;5281;48.878;9.394;2022-12-20T02:20:16;12.93;;;8.63;;
10467;SDS011;5281;48.878;9.394;2022-12-20T02:23:05;11.63;;;8.57;;
10467;SDS011;5281;48.878;9.394;2022-12-20T02:25:50;12.63;;;8.47;;
10467;SDS011;5281;48.878;9.394;2022-12-20T02:28:33;15.23;;;9.13;;
10467;SDS011;5281;48.878;9.394;2022-12-20T02:31:14;13.87;;;9.70;;
10467;SDS011;5281;48.878;9.394;2022-12-20T02:33:46;13.77;;;8.90;;
10467;SDS011;5281;48.878;9.394;2022-12-20T02:36:15;14.93;;;9.00;;
10467;SDS011;5281;48.878;9.394;2022-12-20T02:38:43;12.30;;;8.97;;
10467;SDS011;5281;48.878;9.394;2022-12-20T02:41:10;12.23;;;8.80;;
10467;SDS011;5281;48.878;9.394;2022-12-20T02:43:41;11.60;;;8.50;;
10467;SDS011;5281;48.878;9.394;2022-12-20T02:46:29;12.67;;;8.77;;
10467;SDS011;5281;48.878;9.394;2022-12-20T02:48:58;13.00;;;9.07;;
10467;SDS011;5281;48.878;9.394;2022-12-20T02:51:28;11.70;;;8.33;;
10467;SDS011;5281;48.878;9.394;2022-12-20T02:53:57;13.33;;;9.23;;
10467;SDS011;5281;48.878;9.394;2022-12-20T02:56:26;12.43;;;8.33;;
10467;SDS011;5281;48.878;9.394;2022-12-20T02:58:57;13.10;;;8.67;;
10467;SDS011;5281;48.878;9.394;2022-12-20T03:01:32;13.20;;;8.67;;
10467;SDS011;5281;48.878;9.394;2022-12-20T03:04:03;11.23;;;8.33;;
10467;SDS011;5281;48.878;9.394;2022-12-20T03:06:31;13.10;;;8.63;;
10467;SDS011;5281;48.878;9.394;2022-12-20T03:08:58;11.07;;;7.93;;
10467;SDS011;5281;48.878;9.394;2022-12-20T03:11:25;12.03;;;8.60;;
10467;SDS011;5281;48.878;9.394;2022-12-20T03:13:51;12.47;;;8.97;;
10467;SDS011;5281;48.878;9.394;2022-12-20T03:16:18;14.90;;;9.27;;
10467;SDS011;5281;48.878;9.394;2022-12-20T03:18:46;12.13;;;9.20;;
10467;SDS011;5281;48.878;9.394;2022-12-20T03:21:13;11.70;;;8.97;;
10467;SDS011;5281;48.878;9.394;2022-12-20T03:23:40;12.40;;;8.97;;
10467;SDS011;5281;48.878;9.394;2022-12-20T03:26:06;14.00;;;9.40;;
10467;SDS011;5281;48.878;9.394;2022-12-20T03:28:33;14.73;;;9.17;;
10467;SDS011;5281;48.878;9.394;2022-12-20T03:31:00;13.13;;;8.90;;
10467;SDS011;5281;48.878;9.394;2022-12-20T03:33:27;11.73;;;8.80;;
10467;SDS011;5281;48.878;9.394;2022-12-20T03:35:55;13.17;;;8.63;;
10467;SDS011;5281;48.878;9.394;2022-12-20T03:38:22;13.73;;;9.40;;
10467;SDS011;5281;48.878;9.394;2022-12-20T03:40:48;13.10;;;8.87;;
10467;SDS011;5281;48.878;9.394;2022-12-20T03:43:15;13.20;;;8.30;;
10467;SDS011;5281;48.878;9.394;2022-12-20T03:45:42;10.33;;;7.97;;
10467;SDS011;5281;48.878;9.394;2022-12-20T03:48:08;11.00;;;8.07;;
10467;SDS011;5281;48.878;9.394;2022-12-20T03:50:35;13.13;;;8.50;;
10467;SDS011;5281;48.878;9.394;2022-12-20T03:53:03;12.33;;;8.33;;
10467;SDS011;5281;48.878;9.394;2022-12-20T03:55:30;11.87;;;8.20;;
10467;SDS011;5281;48.878;9.394;2022-12-20T03:57:57;11.57;;;8.83;;
10467;SDS011;5281;48.878;9.394;2022-12-20T04:00:24;12.33;;;8.40;;
10467;SDS011;5281;48.878;9.394;2022-12-20T04:02:51;12.87;;;8.23;;
10467;SDS011;5281;48.878;9.394;2022-12-20T04:05:18;11.63;;;7.93;;
10467;SDS011;5281;48.878;9.394;2022-12-20T04:07:45;10.37;;;7.67;;
10467;SDS011;5281;48.878;9.394;2022-12-20T04:10:13;10.67;;;7.00;;
10467;SDS011;5281;48.878;9.394;2022-12-20T04:12:40;10.67;;;7.43;;
10467;SDS011;5281;48.878;9.394;2022-12-20T04:15:07;11.90;;;8.13;;
10467;SDS011;5281;48.878;9.394;2022-12-20T04:17:34;11.97;;;8.27;;
10467;SDS011;5281;48.878;9.394;2022-12-20T04:20:01;11.53;;;8.20;;
10467;SDS011;5281;48.878;9.394;2022-12-20T04:22:43;9.77;;;7.60;;
10467;SDS011;5281;48.878;9.394;2022-12-20T04:25:10;11.10;;;7.87;;
10467;SDS011;5281;48.878;9.394;2022-12-20T04:27:38;11.07;;;7.97;;
10467;SDS011;5281;48.878;9.394;2022-12-20T04:30:05;9.93;;;7.20;;
10467;SDS011;5281;48.878;9.394;2022-12-20T04:32:33;10.77;;;6.80;;
10467;SDS011;5281;48.878;9.394;2022-12-20T04:35:00;10.40;;;7.07;;
10467;SDS011;5281;48.878;9.394;2022-12-20T04:37:28;9.97;;;7.47;;
10467;SDS011;5281;48.878;9.394;2022-12-20T04:39:55;10.27;;;6.93;;
10467;SDS011;5281;48.878;9.394;2022-12-20T04:42:23;11.20;;;7.33;;
10467;SDS011;5281;48.878;9.394;2022-12-20T04:44:52;11.17;;;7.57;;
10467;SDS011;5281;48.878;9.394;2022-12-20T04:47:18;12.40;;;7.83;;
10467;SDS011;5281;48.878;9.394;2022-12-20T04:49:45;11.50;;;7.90;;
10467;SDS011;5281;48.878;9.394;2022-12-20T04:52:12;12.50;;;8.13;;
10467;SDS011;5281;48.878;9.394;2022-12-20T04:54:56;9.57;;;7.43;;
10467;SDS011;5281;48.878;9.394;2022-12-20T04:57:23;9.53;;;7.57;;
10467;SDS011;5281;48.878;9.394;2022-12-20T04:59:51;9.90;;;7.50;;
10467;SDS011;5281;48.878;9.394;2022-12-20T05:02:18;11.20;;;7.47;;
10467;SDS011;5281;48.878;9.394;2022-12-20T05:04:45;11.13;;;7.87;;
10467;SDS011;5281;48.878;9.394;2022-12-20T05:07:11;12.00;;;8.33;;
10467;SDS011;5281;48.878;9.394;2022-12-20T05:09:38;11.90;;;7.50;;
10467;SDS011;5281;48.878;9.394;2022-12-20T05:12:05;10.80;;;6.77;;
10467;SDS011;5281;48.878;9.394;2022-12-20T05:14:32;11.67;;;7.67;;
10467;SDS011;5281;48.878;9.394;2022-12-20T05:17:00;8.63;;;6.77;;
10467;SDS011;5281;48.878;9.394;2022-12-20T05:19:26;15.30;;;10.90;;
10467;SDS011;5281;48.878;9.394;2022-12-20T05:21:53;10.60;;;7.23;;
10467;SDS011;5281;48.878;9.394;2022-12-20T05:24:37;10.43;;;7.50;;
10467;SDS011;5281;48.878;9.394;2022-12-20T05:27:21;9.80;;;7.27;;
10467;SDS011;5281;48.878;9.394;2022-12-20T05:29:48;10.83;;;7.47;;
10467;SDS011;5281;48.878;9.394;2022-12-20T05:32:16;11.50;;;8.00;;
10467;SDS011;5281;48.878;9.394;2022-12-20T05:34:43;10.23;;;7.50;;
10467;SDS011;5281;48.878;9.394;2022-12-20T05:37:10;11.87;;;7.23;;
10467;SDS011;5281;48.878;9.394;2022-12-20T05:39:36;10.30;;;6.67;;
10467;SDS011;5281;48.878;9.394;2022-12-20T05:42:03;10.90;;;6.50;;
10467;SDS011;5281;48.878;9.394;2022-12-20T05:44:30;12.17;;;7.50;;
10467;SDS011;5281;48.878;9.394;2022-12-20T05:46:57;8.90;;;6.73;;
10467;SDS011;5281;48.878;9.394;2022-12-20T05:49:25;12.00;;;7.93;;
10467;SDS011;5281;48.878;9.394;2022-12-20T05:51:52;17.77;;;11.27;;
10467;SDS011;5281;48.878;9.394;2022-12-20T05:54:18;12.07;;;8.20;;
10467;SDS011;5281;48.878;9.394;2022-12-20T05:56:45;12.47;;;7.10;;
10467;SDS011;5281;48.878;9.394;2022-12-20T05:59:12;13.83;;;9.20;;
10467;SDS011;5281;48.878;9.394;2022-12-20T06:01:39;11.27;;;7.63;;
10467;SDS011;5281;48.878;9.394;2022-12-20T06:04:05;12.63;;;8.63;;
10467;SDS011;5281;48.878;9.394;2022-12-20T06:06:33;10.73;;;6.90;;
10467;SDS011;5281;48.878;9.394;2022-12-20T06:09:00;8.20;;;6.33;;
10467;SDS011;5281;48.878;9.394;2022-12-20T06:11:27;8.73;;;6.40;;
10467;SDS011;5281;48.878;9.394;2022-12-20T06:13:54;10.70;;;7.20;;
10467;SDS011;5281;48.878;9.394;2022-12-20T06:16:20;10.50;;;6.30;;
10467;SDS011;5281;48.878;9.394;2022-12-20T06:18:47;12.37;;;8.30;;
10467;SDS011;5281;48.878;9.394;2022-12-20T06:21:14;9.37;;;6.67;;
10467;SDS011;5281;48.878;9.394;2022-12-20T06:23:43;9.43;;;6.23;;
10467;SDS011;5281;48.878;9.394;2022-12-20T06:26:09;10.23;;;6.43;;
10467;SDS011;5281;48.878;9.394;2022-12-20T06:28:36;7.57;;;5.93;;
10467;SDS011;5281;48.878;9.394;2022-12-20T06:31:07;8.27;;;5.73;;
10467;SDS011;5281;48.878;9.394;2022-12-20T06:33:34;7.97;;;5.20;;
10467;SDS011;5281;48.878;9.394;2022-12-20T06:36:02;7.37;;;5.27;;
10467;SDS011;5281;48.878;9.394;2022-12-20T06:38:29;9.30;;;6.00;;
10467;SDS011;5281;48.878;9.394;2022-12-20T06:40:57;8.73;;;5.77;;
10467;SDS011;5281;48.878;9.394;2022-12-20T06:43:24;8.90;;;6.07;;
10467;SDS011;5281;48.878;9.394;2022-12-20T06:45:50;8.57;;;5.47;;
10467;SDS011;5281;48.878;9.394;2022-12-20T06:48:17;9.87;;;6.10;;
10467;SDS011;5281;48.878;9.394;2022-12-20T06:50:46;7.60;;;5.50;;
10467;SDS011;5281;48.878;9.394;2022-12-20T06:53:13;10.00;;;6.57;;
10467;SDS011;5281;48.878;9.394;2022-12-20T06:55:40;9.37;;;7.30;;
10467;SDS011;5281;48.878;9.394;2022-12-20T06:58:08;9.60;;;6.10;;
10467;SDS011;5281;48.878;9.394;2022-12-20T07:00:35;8.13;;;6.10;;
10467;SDS011;5281;48.878;9.394;2022-12-20T07:03:02;8.43;;;6.40;;
10467;SDS011;5281;48.878;9.394;2022-12-20T07:05:29;11.87;;;6.20;;
10467;SDS011;5281;48.878;9.394;2022-12-20T07:07:55;8.07;;;6.07;;
10467;SDS011;5281;48.878;9.394;2022-12-20T07:10:22;9.27;;;6.43;;
10467;SDS011;5281;48.878;9.394;2022-12-20T07:12:50;8.70;;;6.60;;
10467;SDS011;5281;48.878;9.394;2022-12-20T07:15:19;9.17;;;6.13;;
10467;SDS011;5281;48.878;9.394;2022-12-20T07:17:47;9.70;;;6.87;;
10467;SDS011;5281;48.878;9.394;2022-12-20T07:20:15;10.23;;;7.10;;
10467;SDS011;5281;48.878;9.394;2022-12-20T07:22:41;10.80;;;7.70;;
10467;SDS011;5281;48.878;9.394;2022-12-20T07:25:08;12.00;;;8.23;;
10467;SDS011;5281;48.878;9.394;2022-12-20T07:27:35;11.47;;;8.57;;
10467;SDS011;5281;48.878;9.394;2022-12-20T07:30:02;12.30;;;8.10;;
10467;SDS011;5281;48.878;9.394;2022-12-20T07:32:32;11.70;;;8.50;;
10467;SDS011;5281;48.878;9.394;2022-12-20T07:34:59;12.97;;;8.00;;
10467;SDS011;5281;48.878;9.394;2022-12-20T07:37:27;12.23;;;8.33;;
10467;SDS011;5281;48.878;9.394;2022-12-20T07:39:54;12.67;;;8.00;;
10467;SDS011;5281;48.878;9.394;2022-12-20T07:42:20;11.13;;;8.50;;
10467;SDS011;5281;48.878;9.394;2022-12-20T07:44:47;12.37;;;8.03;;
10467;SDS011;5281;48.878;9.394;2022-12-20T07:47:14;12.10;;;8.50;;
10467;SDS011;5281;48.878;9.394;2022-12-20T07:49:42;10.67;;;7.80;;
10467;SDS011;5281;48.878;9.394;2022-12-20T07:52:09;10.83;;;7.07;;
10467;SDS011;5281;48.878;9.394;2022-12-20T07:54:40;10.47;;;7.60;;
10467;SDS011;5281;48.878;9.394;2022-12-20T07:57:11;9.33;;;6.67;;
10467;SDS011;5281;48.878;9.394;2022-12-20T07:59:42;11.80;;;7.33;;
10467;SDS011;5281;48.878;9.394;2022-12-20T08:02:12;12.60;;;8.50;;
10467;SDS011;5281;48.878;9.394;2022-12-20T08:04:44;12.10;;;7.53;;
10467;SDS011;5281;48.878;9.394;2022-12-20T08:07:12;9.80;;;7.07;;
10467;SDS011;5281;48.878;9.394;2022-12-20T08:09:40;10.30;;;7.40;;
10467;SDS011;5281;48.878;9.394;2022-12-20T08:12:08;10.60;;;7.00;;
10467;SDS011;5281;48.878;9.394;2022-12-20T08:14:37;10.60;;;7.17;;
10467;SDS011;5281;48.878;9.394;2022-12-20T08:17:04;10.80;;;7.03;;
10467;SDS011;5281;48.878;9.394;2022-12-20T08:19:31;9.33;;;6.93;;
10467;SDS011;5281;48.878;9.394;2022-12-20T08:21:59;9.40;;;6.70;;
10467;SDS011;5281;48.878;9.394;2022-12-20T08:24:26;9.23;;;6.77;;
10467;SDS011;5281;48.878;9.394;2022-12-20T08:26:53;9.70;;;6.30;;
10467;SDS011;5281;48.878;9.394;2022-12-20T08:29:20;10.63;;;6.63;;
10467;SDS011;5281;48.878;9.394;2022-12-20T08:31:47;8.87;;;6.67;;
10467;SDS011;5281;48.878;9.394;2022-12-20T08:34:13;10.50;;;6.63;;
10467;SDS011;5281;48.878;9.394;2022-12-20T08:36:40;9.47;;;6.97;;
10467;SDS011;5281;48.878;9.394;2022-12-20T08:39:09;10.50;;;7.13;;
10467;SDS011;5281;48.878;9.394;2022-12-20T08:41:36;11.37;;;7.40;;
10467;SDS011;5281;48.878;9.394;2022-12-20T08:44:03;10.03;;;6.67;;
10467;SDS011;5281;48.878;9.394;2022-12-20T08:46:30;10.60;;;6.83;;
10467;SDS011;5281;48.878;9.394;2022-12-20T08:48:57;8.83;;;6.00;;
10467;SDS011;5281;48.878;9.394;2022-12-20T08:51:23;7.63;;;5.57;;
10467;SDS011;5281;48.878;9.394;2022-12-20T08:53:51;8.70;;;6.27;;
10467;SDS011;5281;48.878;9.394;2022-12-20T08:56:19;7.63;;;5.70;;
10467;SDS011;5281;48.878;9.394;2022-12-20T08:58:46;9.17;;;5.90;;
10467;SDS011;5281;48.878;9.394;2022-12-20T09:01:14;7.80;;;5.60;;
10467;SDS011;5281;48.878;9.394;2022-12-20T09:03:42;8.90;;;5.63;;
10467;SDS011;5281;48.878;9.394;2022-12-20T09:06:10;6.67;;;4.90;;
10467;SDS011;5281;48.878;9.394;2022-12-20T09:08:38;6.93;;;4.93;;
10467;SDS011;5281;48.878;9.394;2022-12-20T09:11:06;6.57;;;5.10;;
10467;SDS011;5281;48.878;9.394;2022-12-20T09:13:37;8.33;;;5.47;;
10467;SDS011;5281;48.878;9.394;2022-12-20T09:16:05;7.20;;;5.10;;
10467;SDS011;5281;48.878;9.394;2022-12-20T09:18:33;7.10;;;4.93;;
10467;SDS011;5281;48.878;9.394;2022-12-20T09:21:00;8.90;;;5.00;;
10467;SDS011;5281;48.878;9.394;2022-12-20T09:23:28;8.03;;;4.93;;
10467;SDS011;5281;48.878;9.394;2022-12-20T09:25:55;6.70;;;5.17;;
10467;SDS011;5281;48.878;9.394;2022-12-20T09:28:26;7.03;;;4.87;;
10467;SDS011;5281;48.878;9.394;2022-12-20T09:30:57;8.93;;;5.83;;
10467;SDS011;5281;48.878;9.394;2022-12-20T09:33:24;8.45;;;4.82;;
10467;SDS011;5281;48.878;9.394;2022-12-20T09:35:51;6.33;;;4.67;;
10467;SDS011;5281;48.878;9.394;2022-12-20T09:38:17;6.17;;;4.27;;
10467;SDS011;5281;48.878;9.394;2022-12-20T09:40:44;5.83;;;4.10;;
10467;SDS011;5281;48.878;9.394;2022-12-20T09:43:13;5.80;;;4.50;;
10467;SDS011;5281;48.878;9.394;2022-12-20T09:45:42;5.83;;;3.90;;
10467;SDS011;5281;48.878;9.394;2022-12-20T09:48:15;5.67;;;3.80;;
10467;SDS011;5281;48.878;9.394;2022-12-20T09:50:45;5.03;;;3.90;;
10467;SDS011;5281;48.878;9.394;2022-12-20T09:53:23;5.33;;;4.03;;
10467;SDS011;5281;48.878;9.394;2022-12-20T09:55:58;4.37;;;3.87;;
10467;SDS011;5281;48.878;9.394;2022-12-20T09:58:34;8.23;;;4.43;;
10467;SDS011;5281;48.878;9.394;2022-12-20T10:01:14;7.77;;;3.83;;
10467;SDS011;5281;48.878;9.394;2022-12-20T10:03:43;4.57;;;3.37;;
10467;SDS011;5281;48.878;9.394;2022-12-20T10:06:12;5.17;;;4.00;;
10467;SDS011;5281;48.878;9.394;2022-12-20T10:08:49;4.33;;;3.70;;
10467;SDS011;5281;48.878;9.394;2022-12-20T10:11:28;4.57;;;3.60;;
10467;SDS011;5281;48.878;9.394;2022-12-20T10:14:08;6.07;;;3.80;;
10467;SDS011;5281;48.878;9.394;2022-12-20T10:16:46;6.60;;;3.73;;
10467;SDS011;5281;48.878;9.394;2022-12-20T10:19:23;4.87;;;3.63;;
10467;SDS011;5281;48.878;9.394;2022-12-20T10:22:13;4.87;;;4.00;;
10467;SDS011;5281;48.878;9.394;2022-12-20T10:24:47;5.17;;;4.10;;
10467;SDS011;5281;48.878;9.394;2022-12-20T10:27:21;4.57;;;3.47;;
10467;SDS011;5281;48.878;9.394;2022-12-20T10:29:48;5.07;;;3.63;;
10467;SDS011;5281;48.878;9.394;2022-12-20T10:32:16;6.37;;;4.00;;
10467;SDS011;5281;48.878;9.394;2022-12-20T10:34:49;6.40;;;4.20;;
10467;SDS011;5281;48.878;9.394;2022-12-20T10:37:20;6.93;;;4.80;;
10467;SDS011;5281;48.878;9.394;2022-12-20T10:39:48;7.67;;;4.50;;
10467;SDS011;5281;48.878;9.394;2022-12-20T10:42:22;6.37;;;4.67;;
10467;SDS011;5281;48.878;9.394;2022-12-20T10:44:51;5.97;;;4.30;;
10467;SDS011;5281;48.878;9.394;2022-12-20T10:47:22;7.63;;;3.93;;
10467;SDS011;5281;48.878;9.394;2022-12-20T10:50:07;7.37;;;3.97;;
10467;SDS011;5281;48.878;9.394;2022-12-20T10:52:39;5.50;;;4.10;;
10467;SDS011;5281;48.878;9.394;2022-12-20T10:57:58;7.27;;;4.60;;
10467;SDS011;5281;48.878;9.394;2022-12-20T11:00:29;7.47;;;4.30;;
10467;SDS011;5281;48.878;9.394;2022-12-20T11:03:06;6.20;;;4.10;;
10467;SDS011;5281;48.878;9.394;2022-12-20T11:05:39;6.83;;;3.70;;
10467;SDS011;5281;48.878;9.394;2022-12-20T11:08:06;5.33;;;3.57;;
10467;SDS011;5281;48.878;9.394;2022-12-20T11:10:39;7.33;;;4.53;;
10467;SDS011;5281;48.878;9.394;2022-12-20T11:13:09;6.80;;;4.07;;
10467;SDS011;5281;48.878;9.394;2022-12-20T11:15:46;6.83;;;4.53;;
10467;SDS011;5281;48.878;9.394;2022-12-20T11:18:16;6.77;;;4.70;;
10467;SDS011;5281;48.878;9.394;2022-12-20T11:20:50;6.87;;;4.47;;
10467;SDS011;5281;48.878;9.394;2022-12-20T11:23:29;7.37;;;4.67;;
10467;SDS011;5281;48.878;9.394;2022-12-20T11:26:06;7.20;;;5.17;;
10467;SDS011;5281;48.878;9.394;2022-12-20T11:28:46;7.87;;;4.50;;
10467;SDS011;5281;48.878;9.394;2022-12-20T11:31:22;7.30;;;5.30;;
10467;SDS011;5281;48.878;9.394;2022-12-20T11:34:10;7.53;;;4.17;;
10467;SDS011;5281;48.878;9.394;2022-12-20T11:36:57;6.60;;;4.23;;
10467;SDS011;5281;48.878;9.394;2022-12-20T11:39:37;6.83;;;4.93;;
10467;SDS011;5281;48.878;9.394;2022-12-20T11:42:13;7.50;;;4.70;;
10467;SDS011;5281;48.878;9.394;2022-12-20T11:44:52;8.30;;;4.80;;
10467;SDS011;5281;48.878;9.394;2022-12-20T11:47:30;6.67;;;5.07;;
10467;SDS011;5281;48.878;9.394;2022-12-20T11:50:15;7.10;;;4.53;;
10467;SDS011;5281;48.878;9.394;2022-12-20T11:53:01;5.57;;;4.60;;
10467;SDS011;5281;48.878;9.394;2022-12-20T11:55:34;6.20;;;4.53;;
10467;SDS011;5281;48.878;9.394;2022-12-20T11:58:04;6.80;;;4.77;;
10467;SDS011;5281;48.878;9.394;2022-12-20T12:00:37;6.13;;;4.93;;
10467;SDS011;5281;48.878;9.394;2022-12-20T12:03:08;6.50;;;4.97;;
10467;SDS011;5281;48.878;9.394;2022-12-20T12:05:40;6.67;;;4.67;;
10467;SDS011;5281;48.878;9.394;2022-12-20T12:08:13;7.27;;;4.27;;
10467;SDS011;5281;48.878;9.394;2022-12-20T12:10:54;8.00;;;4.67;;
10467;SDS011;5281;48.878;9.394;2022-12-20T12:13:25;7.60;;;5.57;;
10467;SDS011;5281;48.878;9.394;2022-12-20T12:15:55;6.97;;;4.93;;
10467;SDS011;5281;48.878;9.394;2022-12-20T12:18:27;6.70;;;4.87;;
10467;SDS011;5281;48.878;9.394;2022-12-20T12:20:58;8.20;;;4.60;;
10467;SDS011;5281;48.878;9.394;2022-12-20T12:23:31;7.90;;;5.20;;
10467;SDS011;5281;48.878;9.394;2022-12-20T12:26:04;7.80;;;4.70;;
10467;SDS011;5281;48.878;9.394;2022-12-20T12:28:37;8.60;;;4.87;;
10467;SDS011;5281;48.878;9.394;2022-12-20T12:31:05;6.77;;;4.77;;
10467;SDS011;5281;48.878;9.394;2022-12-20T12:33:36;7.43;;;5.63;;
10467;SDS011;5281;48.878;9.394;2022-12-20T12:36:22;8.13;;;5.53;;
10467;SDS011;5281;48.878;9.394;2022-12-20T12:39:18;7.63;;;5.13;;
10467;SDS011;5281;48.878;9.394;2022-12-20T12:42:14;9.10;;;5.00;;
10467;SDS011;5281;48.878;9.394;2022-12-20T12:45:09;7.40;;;4.30;;
10467;SDS011;5281;48.878;9.394;2022-12-20T12:47:42;7.30;;;4.53;;
10467;SDS011;5281;48.878;9.394;2022-12-20T12:50:15;6.10;;;4.43;;
10467;SDS011;5281;48.878;9.394;2022-12-20T12:52:49;8.03;;;4.80;;
10467;SDS011;5281;48.878;9.394;2022-12-20T12:58:13;6.43;;;5.00;;
10467;SDS011;5281;48.878;9.394;2022-12-20T13:01:08;6.37;;;4.40;;
10467;SDS011;5281;48.878;9.394;2022-12-20T13:03:43;7.33;;;4.50;;
10467;SDS011;5281;48.878;9.394;2022-12-20T13:06:53;7.73;;;4.70;;
10467;SDS011;5281;48.878;9.394;2022-12-20T13:09:35;7.43;;;4.83;;
10467;SDS011;5281;48.878;9.394;2022-12-20T13:18:24;8.53;;;4.83;;
10467;SDS011;5281;48.878;9.394;2022-12-20T13:23:42;7.03;;;4.60;;
10467;SDS011;5281;48.878;9.394;2022-12-20T13:28:48;8.40;;;5.23;;
10467;SDS011;5281;48.878;9.394;2022-12-20T13:31:30;8.20;;;5.07;;
10467;SDS011;5281;48.878;9.394;2022-12-20T13:33:59;5.60;;;4.30;;
10467;SDS011;5281;48.878;9.394;2022-12-20T13:36:32;6.07;;;4.43;;
10467;SDS011;5281;48.878;9.394;2022-12-20T13:39:02;6.63;;;4.87;;
10467;SDS011;5281;48.878;9.394;2022-12-20T13:41:45;7.20;;;3.53;;
10467;SDS011;5281;48.878;9.394;2022-12-20T13:47:30;4.23;;;3.13;;
10467;SDS011;5281;48.878;9.394;2022-12-20T13:50:11;5.23;;;3.47;;
10467;SDS011;5281;48.878;9.394;2022-12-20T13:52:52;4.07;;;3.30;;
10467;SDS011;5281;48.878;9.394;2022-12-20T13:55:24;4.90;;;3.30;;
10467;SDS011;5281;48.878;9.394;2022-12-20T13:58:02;5.27;;;3.53;;
10467;SDS011;5281;48.878;9.394;2022-12-20T14:00:37;7.27;;;4.17;;
10467;SDS011;5281;48.878;9.394;2022-12-20T14:03:06;5.57;;;3.80;;
10467;SDS011;5281;48.878;9.394;2022-12-20T14:05:42;6.03;;;3.57;;
10467;SDS011;5281;48.878;9.394;2022-12-20T14:08:12;4.53;;;3.60;;
10467;SDS011;5281;48.878;9.394;2022-12-20T14:10:41;7.40;;;4.00;;
10467;SDS011;5281;48.878;9.394;2022-12-20T14:13:18;9.07;;;6.30;;
10467;SDS011;5281;48.878;9.394;2022-12-20T14:15:48;9.10;;;5.90;;
10467;SDS011;5281;48.878;9.394;2022-12-20T14:18:16;7.13;;;4.87;;
10467;SDS011;5281;48.878;9.394;2022-12-20T14:20:45;6.20;;;4.80;;
10467;SDS011;5281;48.878;9.394;2022-12-20T14:23:14;7.77;;;4.07;;
10467;SDS011;5281;48.878;9.394;2022-12-20T14:25:45;8.33;;;4.57;;
10467;SDS011;5281;48.878;9.394;2022-12-20T14:28:16;5.80;;;4.20;;
10467;SDS011;5281;48.878;9.394;2022-12-20T14:30:57;6.17;;;3.57;;
10467;SDS011;5281;48.878;9.394;2022-12-20T14:33:29;5.03;;;3.40;;
10467;SDS011;5281;48.878;9.394;2022-12-20T14:36:06;4.70;;;3.33;;
10467;SDS011;5281;48.878;9.394;2022-12-20T14:38:34;3.70;;;3.13;;
10467;SDS011;5281;48.878;9.394;2022-12-20T14:41:01;5.60;;;3.23;;
10467;SDS011;5281;48.878;9.394;2022-12-20T14:43:31;6.10;;;3.43;;
10467;SDS011;5281;48.878;9.394;2022-12-20T14:46:11;6.70;;;4.37;;
10467;SDS011;5281;48.878;9.394;2022-12-20T14:48:43;5.97;;;3.80;;
10467;SDS011;5281;48.878;9.394;2022-12-20T14:51:10;6.70;;;3.70;;
10467;SDS011;5281;48.878;9.394;2022-12-20T14:53:38;5.90;;;3.67;;
10467;SDS011;5281;48.878;9.394;2022-12-20T14:56:12;6.23;;;4.20;;
10467;SDS011;5281;48.878;9.394;2022-12-20T14:58:41;5.90;;;3.73;;
10467;SDS011;5281;48.878;9.394;2022-12-20T15:01:18;4.77;;;3.70;;
10467;SDS011;5281;48.878;9.394;2022-12-20T15:03:49;5.80;;;3.83;;
10467;SDS011;5281;48.878;9.394;2022-12-20T15:06:30;3.97;;;3.40;;
10467;SDS011;5281;48.878;9.394;2022-12-20T15:08:58;4.93;;;3.60;;
10467;SDS011;5281;48.878;9.394;2022-12-20T15:11:24;6.53;;;3.97;;
10467;SDS011;5281;48.878;9.394;2022-12-20T15:13:52;6.27;;;4.30;;
10467;SDS011;5281;48.878;9.394;2022-12-20T15:16:22;6.43;;;3.67;;
10467;SDS011;5281;48.878;9.394;2022-12-20T15:18:50;8.00;;;4.47;;
10467;SDS011;5281;48.878;9.394;2022-12-20T15:21:21;5.73;;;4.23;;
10467;SDS011;5281;48.878;9.394;2022-12-20T15:23:53;8.43;;;4.37;;
10467;SDS011;5281;48.878;9.394;2022-12-20T15:26:21;6.37;;;4.57;;
10467;SDS011;5281;48.878;9.394;2022-12-20T15:28:50;6.97;;;4.20;;
10467;SDS011;5281;48.878;9.394;2022-12-20T15:31:17;6.03;;;4.03;;
10467;SDS011;5281;48.878;9.394;2022-12-20T15:33:49;6.60;;;4.50;;
10467;SDS011;5281;48.878;9.394;2022-12-20T15:36:18;7.50;;;4.20;;
10467;SDS011;5281;48.878;9.394;2022-12-20T15:38:46;6.40;;;4.43;;